Time;durP1;ratioP1;P1;durP2;ratioP2;P2;SDS_P1;SDS_P2;PMS_P1;PMS_P2;Temp;Humidity;BMP_temperature;BMP_pressure;BME280_temperature;BME280_humidity;BME280_pressure;Samples;Min_cycle;Max_cycle;Signal;HPM_P1;HPM_P2
2023/08/31 00:01:15;;;;;;;10.35;2.15;;;16.20;84.40;;;;;;6337874;22;19999;-79
2023/08/31 00:03:42;;;;;;;10.57;1.88;;;16.30;83.40;;;;;;6337444;22;20093;-78
2023/08/31 00:06:09;;;;;;;13.10;2.13;;;16.40;84.40;;;;;;6337031;22;20378;-78
2023/08/31 00:08:37;;;;;;;8.60;2.08;;;16.50;83.90;;;;;;6309573;22;20425;-79
2023/08/31 00:11:05;;;;;;;10.43;2.00;;;16.50;82.30;;;;;;6309614;22;20098;-78
2023/08/31 00:13:33;;;;;;;6.10;1.50;;;16.60;81.90;;;;;;6284329;22;20314;-79
2023/08/31 00:16:00;;;;;;;8.23;1.63;;;16.60;81.50;;;;;;6337717;22;20434;-78
2023/08/31 00:18:27;;;;;;;7.75;1.80;;;16.70;82.10;;;;;;6337402;22;20003;-78
2023/08/31 00:20:54;;;;;;;10.02;1.90;;;16.70;82.80;;;;;;6338252;22;20014;-78
2023/08/31 00:23:22;;;;;;;4.65;1.50;;;16.70;82.40;;;;;;6311523;22;20022;-79
2023/08/31 00:25:50;;;;;;;6.20;1.35;;;16.70;82.00;;;;;;6311648;22;20341;-82
2023/08/31 00:28:18;;;;;;;6.65;1.85;;;16.70;81.60;;;;;;6339247;22;20031;-78
2023/08/31 00:30:45;;;;;;;10.35;1.65;;;16.80;81.70;;;;;;6311795;22;20030;-78
2023/08/31 00:33:13;;;;;;;13.50;2.10;;;16.80;82.10;;;;;;6311271;22;20003;-79
2023/08/31 00:35:46;;;;;;;9.98;1.88;;;16.80;82.40;;;;;;6311844;22;20002;-79
2023/08/31 00:38:14;;;;;;;11.98;2.33;;;16.90;80.50;;;;;;6338591;22;20413;-78
2023/08/31 00:40:44;;;;;;;11.32;1.83;;;16.80;81.70;;;;;;6311841;22;20052;-80
2023/08/31 00:43:11;;;;;;;10.88;2.25;;;16.80;81.00;;;;;;6339247;22;20076;-79
2023/08/31 00:45:40;;;;;;;7.22;1.95;;;16.90;81.50;;;;;;6286555;22;20456;-80
2023/08/31 00:48:08;;;;;;;7.88;1.58;;;16.80;80.70;;;;;;6311734;22;19999;-79
2023/08/31 00:50:35;;;;;;;9.13;2.10;;;16.80;80.80;;;;;;6286028;22;20003;-79
2023/08/31 00:53:04;;;;;;;9.80;2.10;;;16.80;80.50;;;;;;6339006;22;19995;-79
2023/08/31 00:55:31;;;;;;;5.32;1.48;;;16.90;80.30;;;;;;6338939;22;20013;-78
2023/08/31 00:58:00;;;;;;;11.23;2.33;;;16.90;81.10;;;;;;6338553;22;20425;-79
2023/08/31 01:00:48;;;;;;;12.70;1.63;;;16.90;81.80;;;;;;6338993;22;20368;-78
2023/08/31 01:03:54;;;;;;;8.00;1.80;;;16.90;81.40;;;;;;6338773;22;19998;-79
2023/08/31 01:06:40;;;;;;;8.45;1.83;;;16.90;81.70;;;;;;6338666;22;20017;-79
2023/08/31 01:09:27;;;;;;;12.82;1.90;;;16.90;79.90;;;;;;6338853;22;20006;-78
2023/08/31 01:12:17;;;;;;;11.90;1.90;;;17.10;80.60;;;;;;6311112;22;20045;-74
2023/08/31 01:14:48;;;;;;;10.70;2.05;;;17.10;79.60;;;;;;6310121;22;19995;-77
2023/08/31 01:17:15;;;;;;;5.07;1.50;;;17.00;80.10;;;;;;6310751;22;20003;-77
2023/08/31 01:19:49;;;;;;;8.13;1.60;;;17.10;80.90;;;;;;6285359;22;19995;-77
2023/08/31 01:22:28;;;;;;;9.35;1.85;;;17.20;79.00;;;;;;6310644;22;20045;-77
2023/08/31 01:24:55;;;;;;;11.13;1.70;;;17.10;79.80;;;;;;6313197;22;20042;-77
2023/08/31 01:27:23;;;;;;;8.43;1.70;;;17.20;78.60;;;;;;6285240;22;20425;-77
2023/08/31 01:29:50;;;;;;;11.38;2.45;;;17.20;77.60;;;;;;6282959;22;20142;-76
2023/08/31 01:32:17;;;;;;;10.20;2.08;;;17.20;79.20;;;;;;6309379;22;20003;-77
2023/08/31 01:34:44;;;;;;;7.50;1.80;;;17.40;79.90;;;;;;6283432;22;20006;-77
2023/08/31 01:37:18;;;;;;;9.18;2.25;;;17.50;78.90;;;;;;6310422;22;20003;-76
2023/08/31 01:39:53;;;;;;;10.10;2.00;;;17.50;79.30;;;;;;6309034;22;20032;-77
2023/08/31 01:42:20;;;;;;;13.60;2.08;;;17.50;78.70;;;;;;6310884;22;20025;-79
2023/08/31 01:44:48;;;;;;;7.35;1.70;;;17.40;78.90;;;;;;6338430;22;19995;-77
2023/08/31 01:47:16;;;;;;;7.80;1.75;;;17.40;78.90;;;;;;6311196;22;20077;-77
2023/08/31 01:49:43;;;;;;;11.43;2.55;;;17.40;77.60;;;;;;6285559;22;20325;-77
2023/08/31 01:52:10;;;;;;;10.90;1.92;;;17.50;78.40;;;;;;6310727;22;20002;-76
2023/08/31 01:54:38;;;;;;;10.85;1.92;;;17.50;78.40;;;;;;6338344;22;20094;-76
2023/08/31 01:57:06;;;;;;;8.25;2.25;;;17.50;77.40;;;;;;6310807;22;20010;-77
2023/08/31 01:59:35;;;;;;;6.78;1.80;;;17.30;78.50;;;;;;6338007;22;20078;-77
2023/08/31 02:02:02;;;;;;;12.82;2.05;;;17.20;79.10;;;;;;6338865;22;19999;-77
2023/08/31 02:04:29;;;;;;;9.30;2.00;;;17.20;80.10;;;;;;6338087;22;20433;-77
2023/08/31 02:06:57;;;;;;;9.68;2.20;;;17.30;79.40;;;;;;6284984;22;20014;-76
2023/08/31 02:09:24;;;;;;;9.15;2.17;;;17.30;79.20;;;;;;6338388;22;20427;-77
2023/08/31 02:11:52;;;;;;;12.80;2.05;;;17.30;78.70;;;;;;6310831;22;20064;-78
2023/08/31 02:14:19;;;;;;;15.15;1.92;;;17.30;78.00;;;;;;6338789;22;20002;-78
2023/08/31 02:16:47;;;;;;;12.93;2.15;;;17.30;78.10;;;;;;6310504;22;20013;-77
2023/08/31 02:19:14;;;;;;;9.93;1.80;;;17.20;78.10;;;;;;6338293;22;20006;-77
2023/08/31 02:21:41;;;;;;;15.13;1.77;;;17.20;77.60;;;;;;6310720;22;20041;-77
2023/08/31 07:18:07;;;;;;;12.25;2.30;;;17.00;76.80;;;;;;6326529;22;20072;-73
2023/08/31 07:20:35;;;;;;;8.43;1.80;;;16.90;77.00;;;;;;6308027;22;20015;-76
2023/08/31 07:23:02;;;;;;;14.15;2.17;;;16.90;77.60;;;;;;6337477;22;20151;-77
2023/08/31 07:25:29;;;;;;;10.50;1.88;;;16.90;77.70;;;;;;6337398;22;20338;-77
2023/08/31 07:27:56;;;;;;;9.82;1.70;;;16.80;77.20;;;;;;6336203;22;20425;-77
2023/08/31 07:30:24;;;;;;;9.70;1.95;;;16.80;76.90;;;;;;6336900;22;19999;-76
2023/08/31 07:32:51;;;;;;;9.80;1.85;;;16.80;76.90;;;;;;6339038;22;20002;-75
2023/08/31 07:35:18;;;;;;;8.95;1.90;;;16.80;77.10;;;;;;6309770;22;20028;-82
2023/08/31 07:37:45;;;;;;;13.30;2.80;;;16.80;77.30;;;;;;6336203;22;20006;-79
2023/08/31 07:40:13;;;;;;;10.07;2.10;;;16.80;77.70;;;;;;6282744;22;20010;-79
2023/08/31 07:42:40;;;;;;;11.80;2.00;;;16.80;78.20;;;;;;6335745;22;20007;-80
2023/08/31 07:45:08;;;;;;;9.38;2.25;;;16.80;78.20;;;;;;6335747;22;20025;-78
2023/08/31 07:47:35;;;;;;;6.68;1.60;;;16.70;78.40;;;;;;6308460;22;20034;-77
2023/08/31 07:50:03;;;;;;;10.15;2.00;;;16.70;78.40;;;;;;6335871;22;20038;-79
2023/08/31 07:52:30;;;;;;;9.52;1.90;;;16.70;78.80;;;;;;6283786;22;20009;-79
2023/08/31 07:54:57;;;;;;;9.13;1.98;;;16.70;78.70;;;;;;6334995;22;19999;-80
2023/08/31 07:57:24;;;;;;;16.38;2.40;;;16.70;78.80;;;;;;6336621;22;20002;-80
2023/08/31 07:59:52;;;;;;;8.80;1.98;;;16.70;78.90;;;;;;6308700;22;20333;-80
2023/08/31 08:02:19;;;;;;;6.38;2.13;;;16.70;79.00;;;;;;6334732;22;20091;-79
2023/08/31 08:04:49;;;;;;;11.68;2.42;;;16.60;79.10;;;;;;6333909;22;20007;-77
2023/08/31 08:07:16;;;;;;;7.85;1.95;;;16.60;79.10;;;;;;6335795;22;20003;-77
2023/08/31 08:09:44;;;;;;;8.60;1.98;;;16.60;79.30;;;;;;6280686;22;20060;-77
2023/08/31 08:12:11;;;;;;;10.25;1.95;;;16.60;79.40;;;;;;6334232;22;20508;-77
2023/08/31 08:14:38;;;;;;;10.60;2.47;;;16.60;79.40;;;;;;6308341;22;20025;-77
2023/08/31 09:14:21;;;;;;;14.60;2.65;;;16.30;79.60;;;;;;6301182;22;20066;-72
2023/08/31 09:16:49;;;;;;;9.55;2.80;;;16.30;79.90;;;;;;6275863;22;20042;-74
2023/08/31 09:19:20;;;;;;;12.52;3.63;;;16.30;80.00;;;;;;6301046;22;20079;-78
2023/08/31 09:21:52;;;;;;;9.40;2.80;;;16.30;80.20;;;;;;6250345;22;20346;-76
2023/08/31 09:24:19;;;;;;;10.25;3.08;;;16.30;80.10;;;;;;6302987;22;20000;-76
2023/08/31 09:26:56;;;;;;;13.30;3.40;;;16.30;80.30;;;;;;6302122;22;20350;-77
2023/08/31 09:29:23;;;;;;;16.35;3.50;;;16.20;80.40;;;;;;6303897;22;20006;-77
2023/08/31 09:31:51;;;;;;;13.65;2.90;;;16.20;80.50;;;;;;6250172;22;20014;-76
2023/08/31 09:34:18;;;;;;;13.05;3.20;;;16.20;80.60;;;;;;6249916;22;19999;-79
2023/08/31 09:36:46;;;;;;;10.27;2.50;;;16.20;80.70;;;;;;6276292;22;20515;-78
2023/08/31 09:39:14;;;;;;;12.70;2.63;;;16.20;80.80;;;;;;6302798;22;20004;-79
2023/08/31 09:41:55;;;;;;;11.48;2.42;;;16.20;80.90;;;;;;6276289;22;20007;-75
2023/08/31 09:44:22;;;;;;;13.00;2.97;;;16.20;81.20;;;;;;6274214;22;20003;-77
2023/08/31 09:46:49;;;;;;;11.82;2.90;;;16.20;81.00;;;;;;6249620;22;20524;-77
2023/08/31 09:49:18;;;;;;;15.50;3.10;;;16.20;81.10;;;;;;6302493;22;20006;-77
2023/08/31 09:51:46;;;;;;;10.45;3.10;;;16.20;81.20;;;;;;6276403;22;20014;-77
2023/08/31 09:54:18;;;;;;;11.45;3.50;;;16.20;81.20;;;;;;6248366;22;20006;-78
2023/08/31 09:56:46;;;;;;;14.88;3.63;;;16.20;81.10;;;;;;6276062;22;20338;-78
2023/08/31 09:59:14;;;;;;;13.15;4.43;;;16.20;81.20;;;;;;6275115;22;20007;-81
2023/08/31 10:01:42;;;;;;;13.85;4.00;;;16.20;81.30;;;;;;6250774;22;20011;-80
2023/08/31 10:04:10;;;;;;;13.90;3.65;;;16.20;81.20;;;;;;6250735;22;19999;-77
2023/08/31 10:06:39;;;;;;;12.02;3.85;;;16.20;81.20;;;;;;6276028;22;20013;-79
2023/08/31 10:09:06;;;;;;;14.25;4.32;;;16.20;81.20;;;;;;6250424;22;19999;-82
2023/08/31 10:11:34;;;;;;;16.23;4.05;;;16.20;81.00;;;;;;6226127;22;20078;-80
2023/08/31 10:14:01;;;;;;;13.90;3.95;;;16.20;80.70;;;;;;6250285;22;20033;-81
2023/08/31 10:16:29;;;;;;;9.95;3.58;;;16.20;80.80;;;;;;6275753;22;20070;-83
2023/08/31 10:18:56;;;;;;;12.48;4.07;;;16.30;81.00;;;;;;6275810;22;20006;-85
2023/08/31 10:21:24;;;;;;;14.50;4.38;;;16.30;81.20;;;;;;6274849;22;20095;-80
2023/08/31 10:23:51;;;;;;;19.58;4.63;;;16.20;81.50;;;;;;6275758;22;20010;-84
2023/08/31 10:26:36;;;;;;;15.80;4.20;;;16.20;81.70;;;;;;6275299;22;20011;-82
2023/08/31 10:29:04;;;;;;;17.13;4.38;;;16.20;81.80;;;;;;6275095;22;20069;-79
2023/08/31 10:31:32;;;;;;;12.15;3.55;;;16.10;81.80;;;;;;6302889;22;20015;-77
2023/08/31 10:34:04;;;;;;;15.85;4.30;;;16.00;81.80;;;;;;6275356;22;20004;-78
2023/08/31 10:36:47;;;;;;;13.40;3.90;;;16.00;82.10;;;;;;6274174;22;20010;-78
2023/08/31 10:39:21;;;;;;;14.45;3.97;;;15.90;82.20;;;;;;6301291;22;20007;-78
2023/08/31 10:41:57;;;;;;;12.88;3.90;;;15.90;82.40;;;;;;6275855;22;20003;-78
2023/08/31 10:44:26;;;;;;;11.80;3.75;;;15.90;82.40;;;;;;6302464;22;20010;-78
2023/08/31 10:46:54;;;;;;;14.55;4.00;;;15.80;82.40;;;;;;6275966;22;20386;-79
2023/08/31 10:49:22;;;;;;;14.27;3.70;;;15.70;82.40;;;;;;6302152;22;19995;-79
2023/08/31 10:51:57;;;;;;;9.02;3.13;;;15.70;82.60;;;;;;6302537;22;20418;-78
2023/08/31 10:54:31;;;;;;;11.88;3.22;;;15.70;82.60;;;;;;6300833;22;20426;-78
2023/08/31 10:57:02;;;;;;;10.05;3.17;;;15.70;82.70;;;;;;6302490;22;20003;-78
2023/08/31 10:59:52;;;;;;;14.10;3.35;;;15.70;82.60;;;;;;6302173;22;20003;-80
2023/08/31 11:02:35;;;;;;;15.90;2.80;;;15.70;82.90;;;;;;6274915;22;20438;-79
2023/08/31 11:05:09;;;;;;;9.85;2.70;;;15.70;82.60;;;;;;6275111;22;20027;-78
2023/08/31 11:07:37;;;;;;;8.65;2.58;;;15.60;83.00;;;;;;6301708;22;20422;-80
2023/08/31 11:10:14;;;;;;;10.68;3.20;;;15.60;83.00;;;;;;6274661;22;20010;-79
2023/08/31 11:12:42;;;;;;;12.25;3.03;;;15.60;82.90;;;;;;6304034;22;20011;-77
2023/08/31 11:15:13;;;;;;;9.82;3.72;;;15.50;83.00;;;;;;6334286;22;20011;-82
2023/08/31 11:17:40;;;;;;;;;;;15.50;83.30;;;;;;6307192;22;20023;-82
2023/08/31 11:20:09;;;;;;;14.63;3.45;;;15.50;83.30;;;;;;6305547;22;19898;-82
2023/08/31 11:22:40;;;;;;;10.45;3.40;;;15.50;83.40;;;;;;6305378;22;20002;-80
2023/08/31 11:25:08;;;;;;;12.50;4.10;;;15.50;83.80;;;;;;6305465;22;20002;-78
2023/08/31 11:27:35;;;;;;;13.13;3.53;;;15.40;84.10;;;;;;6306234;22;20442;-79
2023/08/31 11:30:03;;;;;;;10.98;3.40;;;15.50;84.30;;;;;;6332756;22;20003;-79
2023/08/31 11:32:30;;;;;;;11.27;3.58;;;15.40;84.30;;;;;;6305583;22;20010;-78
2023/08/31 11:34:57;;;;;;;13.23;3.30;;;15.50;84.40;;;;;;6333999;22;20007;-79
2023/08/31 11:37:24;;;;;;;12.38;3.72;;;15.40;84.30;;;;;;6332936;22;20003;-79
2023/08/31 11:39:52;;;;;;;12.88;3.45;;;15.40;84.30;;;;;;6279785;22;19999;-82
2023/08/31 11:42:20;;;;;;;11.65;3.58;;;15.40;84.60;;;;;;6307083;22;19999;-80
2023/08/31 11:44:52;;;;;;;13.80;3.67;;;15.30;84.70;;;;;;6307647;22;20034;-80
2023/08/31 11:47:19;;;;;;;14.35;3.20;;;15.30;84.90;;;;;;6306824;22;20007;-77
2023/08/31 11:49:48;;;;;;;13.77;3.30;;;15.30;85.20;;;;;;6309234;22;20004;-75
2023/08/31 11:52:15;;;;;;;13.10;3.20;;;15.30;85.30;;;;;;6334636;22;20009;-76
2023/08/31 11:54:43;;;;;;;14.00;3.20;;;15.30;85.60;;;;;;6308748;22;20406;-75
2023/08/31 11:57:11;;;;;;;15.75;3.60;;;15.20;85.80;;;;;;6307736;22;20537;-75
2023/08/31 11:59:39;;;;;;;13.57;3.33;;;15.20;85.90;;;;;;6335954;22;20322;-75
2023/08/31 12:02:09;;;;;;;10.38;2.83;;;15.20;86.10;;;;;;6336892;22;20048;-75
2023/08/31 12:04:46;;;;;;;12.68;3.83;;;15.10;86.30;;;;;;6282582;22;20042;-75
2023/08/31 12:07:19;;;;;;;11.68;3.35;;;15.10;86.40;;;;;;6335728;22;20011;-75
2023/08/31 12:09:46;;;;;;;10.77;2.97;;;15.10;86.30;;;;;;6308368;22;20052;-76
2023/08/31 12:12:17;;;;;;;11.25;3.50;;;15.00;86.40;;;;;;6335776;22;20034;-73
2023/08/31 12:14:45;;;;;;;18.52;3.67;;;15.00;86.60;;;;;;6307737;22;20092;-74
2023/08/31 12:17:12;;;;;;;13.15;3.35;;;14.90;87.00;;;;;;6338352;22;20003;-74
2023/08/31 12:19:39;;;;;;;13.55;3.53;;;14.90;87.00;;;;;;6310814;22;20091;-74
2023/08/31 12:22:12;;;;;;;8.55;3.22;;;14.80;86.90;;;;;;6309931;22;19999;-74
2023/08/31 12:24:43;;;;;;;11.98;3.08;;;14.80;87.10;;;;;;6311881;22;20061;-74
2023/08/31 12:27:11;;;;;;;12.20;3.25;;;14.70;87.40;;;;;;6310955;22;20076;-74
2023/08/31 12:29:38;;;;;;;13.27;3.33;;;14.70;87.40;;;;;;6336949;22;20003;-74
2023/08/31 12:32:05;;;;;;;10.68;3.47;;;14.70;87.30;;;;;;6310646;22;20006;-76
2023/08/31 12:34:33;;;;;;;9.77;3.53;;;14.70;87.20;;;;;;6336877;22;20026;-76
2023/08/31 12:37:01;;;;;;;11.93;3.47;;;14.70;87.40;;;;;;6337753;22;19995;-76
2023/08/31 12:39:28;;;;;;;14.10;3.05;;;14.80;87.20;;;;;;6337526;22;20018;-76
2023/08/31 12:41:56;;;;;;;11.73;3.33;;;14.80;87.00;;;;;;6310481;22;20429;-73
2023/08/31 12:44:25;;;;;;;9.13;2.85;;;14.70;87.00;;;;;;6337657;22;20066;-74
2023/08/31 12:46:53;;;;;;;13.02;3.10;;;14.70;87.20;;;;;;6337347;22;20034;-73
2023/08/31 12:49:20;;;;;;;13.82;3.72;;;14.70;87.40;;;;;;6337390;22;20052;-74
2023/08/31 12:51:48;;;;;;;15.15;3.55;;;14.70;87.60;;;;;;6338564;22;19999;-74
2023/08/31 12:54:15;;;;;;;7.93;3.00;;;14.70;87.70;;;;;;6310805;22;20084;-74
2023/08/31 12:56:43;;;;;;;8.70;3.10;;;14.60;87.90;;;;;;6338156;22;20371;-73
2023/08/31 12:59:10;;;;;;;12.48;3.63;;;14.60;87.90;;;;;;6338222;22;20003;-73
2023/08/31 13:01:38;;;;;;;14.60;3.10;;;14.50;87.70;;;;;;6337584;22;20003;-74
2023/08/31 13:04:05;;;;;;;13.35;3.63;;;14.40;87.90;;;;;;6337735;22;20448;-73
2023/08/31 13:06:32;;;;;;;10.95;3.40;;;14.40;88.00;;;;;;6310539;22;20017;-74
2023/08/31 13:08:59;;;;;;;9.68;3.25;;;14.40;88.00;;;;;;6337672;22;20023;-74
2023/08/31 13:11:27;;;;;;;16.10;3.85;;;14.40;88.00;;;;;;6338474;22;20333;-74
2023/08/31 13:13:55;;;;;;;11.13;3.28;;;14.40;88.10;;;;;;6337744;22;20430;-73
2023/08/31 13:16:24;;;;;;;13.15;3.33;;;14.30;88.10;;;;;;6337535;22;20032;-73
2023/08/31 13:18:51;;;;;;;15.88;3.60;;;14.30;88.10;;;;;;6337560;22;19999;-73
2023/08/31 13:21:19;;;;;;;16.05;3.90;;;14.40;88.20;;;;;;6337559;22;19999;-76
2023/08/31 13:23:46;;;;;;;15.70;3.65;;;14.40;88.20;;;;;;6310007;22;20356;-76
2023/08/31 13:26:13;;;;;;;14.07;3.67;;;14.40;88.10;;;;;;6336802;22;20024;-75
2023/08/31 13:28:41;;;;;;;15.82;3.58;;;14.40;87.90;;;;;;6336737;22;20069;-76
2023/08/31 13:31:08;;;;;;;14.57;4.18;;;14.30;87.70;;;;;;6336827;22;19998;-76
2023/08/31 13:33:35;;;;;;;14.05;3.95;;;14.40;87.80;;;;;;6310313;22;20123;-76
2023/08/31 13:36:03;;;;;;;11.32;3.78;;;14.30;87.60;;;;;;6309758;22;20310;-74
2023/08/31 13:38:30;;;;;;;14.40;4.25;;;14.30;87.60;;;;;;6309972;22;20010;-75
2023/08/31 13:40:58;;;;;;;11.30;3.63;;;14.30;87.70;;;;;;6334323;22;20010;-74
2023/08/31 13:43:25;;;;;;;12.23;3.30;;;14.30;87.70;;;;;;6336276;22;20075;-74
2023/08/31 13:45:53;;;;;;;11.60;3.30;;;14.30;87.60;;;;;;6309498;22;20053;-74
2023/08/31 13:48:22;;;;;;;13.52;3.30;;;14.20;87.60;;;;;;6336690;22;20201;-74
2023/08/31 13:50:49;;;;;;;12.40;2.97;;;14.20;87.50;;;;;;6337302;22;20077;-74
2023/08/31 13:53:16;;;;;;;13.70;3.22;;;14.20;87.40;;;;;;6284470;22;20333;-74
2023/08/31 13:55:44;;;;;;;15.23;3.53;;;14.20;87.40;;;;;;6309811;22;20421;-74
2023/08/31 13:58:12;;;;;;;11.05;2.85;;;14.20;87.30;;;;;;6310180;22;20345;-74
2023/08/31 14:00:40;;;;;;;10.70;2.78;;;14.20;87.20;;;;;;6310072;22;19995;-74
2023/08/31 14:03:07;;;;;;;6.03;2.63;;;14.20;86.60;;;;;;6337175;22;20005;-74
2023/08/31 14:05:34;;;;;;;12.80;2.80;;;14.20;86.30;;;;;;6337485;22;19998;-74
2023/08/31 14:08:04;;;;;;;9.40;2.75;;;14.20;85.80;;;;;;6338018;22;20010;-73
2023/08/31 14:10:33;;;;;;;7.78;2.42;;;14.10;85.00;;;;;;6310785;22;19999;-74
2023/08/31 14:13:00;;;;;;;6.35;2.47;;;14.10;84.00;;;;;;6337447;22;20017;-74
2023/08/31 14:15:27;;;;;;;6.03;1.67;;;14.20;83.40;;;;;;6337015;22;20003;-74
2023/08/31 14:17:54;;;;;;;7.05;1.67;;;14.20;82.10;;;;;;6337198;22;20007;-76
2023/08/31 14:20:22;;;;;;;7.13;1.83;;;14.10;81.20;;;;;;6338090;22;20429;-74
2023/08/31 14:22:50;;;;;;;6.57;1.55;;;14.10;80.80;;;;;;6309250;22;20083;-74
2023/08/31 14:25:17;;;;;;;5.80;1.73;;;14.20;80.40;;;;;;6283827;22;20049;-74
2023/08/31 14:27:46;;;;;;;6.30;1.83;;;14.10;79.90;;;;;;6337773;22;20094;-74
2023/08/31 14:30:14;;;;;;;5.97;2.00;;;14.10;79.20;;;;;;6336452;22;19995;-74
2023/08/31 14:32:41;;;;;;;4.32;1.38;;;14.20;79.10;;;;;;6336625;22;20056;-74
2023/08/31 14:35:08;;;;;;;5.35;1.90;;;14.10;78.20;;;;;;6309931;22;19999;-74
2023/08/31 14:37:35;;;;;;;8.35;2.03;;;14.10;77.70;;;;;;6335912;22;20052;-76
2023/08/31 14:40:05;;;;;;;6.20;1.70;;;14.10;78.20;;;;;;6335519;22;19994;-74
2023/08/31 14:42:33;;;;;;;5.40;1.60;;;14.00;79.20;;;;;;6336564;22;20475;-74
2023/08/31 14:45:00;;;;;;;5.22;1.65;;;14.10;79.40;;;;;;6336769;22;20069;-74
2023/08/31 14:47:28;;;;;;;5.85;1.60;;;14.00;79.30;;;;;;6336324;22;20007;-75
2023/08/31 14:49:56;;;;;;;3.95;1.90;;;14.00;79.60;;;;;;6336148;22;19999;-75
2023/08/31 14:52:23;;;;;;;3.17;1.40;;;13.90;79.20;;;;;;6309518;22;20002;-74
2023/08/31 14:54:50;;;;;;;5.75;1.40;;;14.00;78.10;;;;;;6335668;22;20003;-75
2023/08/31 14:57:18;;;;;;;3.90;1.50;;;14.00;78.00;;;;;;6309429;22;20009;-75
2023/08/31 14:59:45;;;;;;;5.28;1.52;;;14.00;79.40;;;;;;6336886;22;20002;-74
2023/08/31 15:02:14;;;;;;;4.95;1.77;;;14.00;79.10;;;;;;6336695;22;20026;-74
2023/08/31 15:04:41;;;;;;;6.15;1.70;;;14.10;78.50;;;;;;6336856;22;20007;-74
2023/08/31 15:07:08;;;;;;;3.90;1.55;;;14.00;78.00;;;;;;6309339;22;20098;-74
2023/08/31 15:09:36;;;;;;;3.15;1.20;;;14.10;77.70;;;;;;6337715;22;20026;-74
2023/08/31 15:12:04;;;;;;;4.00;1.40;;;14.10;77.20;;;;;;6336197;22;20079;-74
2023/08/31 15:14:31;;;;;;;3.97;1.30;;;14.10;76.60;;;;;;6309528;22;20019;-74
2023/08/31 15:16:59;;;;;;;2.72;1.40;;;14.00;76.20;;;;;;6336950;22;20006;-74
2023/08/31 15:19:26;;;;;;;3.38;1.35;;;14.00;76.20;;;;;;6309699;22;20041;-74
2023/08/31 15:21:53;;;;;;;2.83;1.30;;;14.00;75.90;;;;;;6309630;22;20007;-75
2023/08/31 15:24:20;;;;;;;2.78;1.13;;;14.00;76.30;;;;;;6337076;22;19999;-74
2023/08/31 15:26:48;;;;;;;3.58;1.15;;;13.90;75.90;;;;;;6336883;22;20049;-75
2023/08/31 15:29:15;;;;;;;2.05;1.15;;;13.80;75.30;;;;;;6337351;22;20473;-75
2023/08/31 15:31:42;;;;;;;3.20;1.27;;;13.80;74.80;;;;;;6336901;22;20077;-75
2023/08/31 15:34:12;;;;;;;3.10;1.23;;;13.70;74.50;;;;;;6310041;22;19998;-75
2023/08/31 15:36:41;;;;;;;4.40;1.48;;;13.80;74.50;;;;;;6336482;22;20028;-75
2023/08/31 15:39:08;;;;;;;4.32;1.15;;;13.70;74.00;;;;;;6309382;22;20007;-75
2023/08/31 15:41:36;;;;;;;2.83;1.10;;;13.70;74.30;;;;;;6309006;22;20074;-75
2023/08/31 15:44:03;;;;;;;2.03;1.08;;;13.70;73.50;;;;;;6336139;22;20005;-75
2023/08/31 15:46:31;;;;;;;2.05;1.00;;;13.70;73.20;;;;;;6336007;22;20018;-74
2023/08/31 15:48:58;;;;;;;3.35;1.00;;;13.60;72.90;;;;;;6336342;22;20058;-75
2023/08/31 15:51:25;;;;;;;4.53;1.10;;;13.60;72.50;;;;;;6336907;22;20002;-75
2023/08/31 15:53:53;;;;;;;4.43;1.10;;;13.60;72.60;;;;;;6338482;22;20820;-74
2023/08/31 15:56:20;;;;;;;2.35;0.82;;;13.60;72.40;;;;;;6339035;22;20006;-74
2023/08/31 15:58:48;;;;;;;3.75;1.38;;;13.60;72.20;;;;;;6338432;22;20483;-74
2023/08/31 16:01:15;;;;;;;2.25;1.10;;;13.60;71.40;;;;;;6337815;22;20006;-75
2023/08/31 16:03:42;;;;;;;3.05;0.82;;;13.50;71.80;;;;;;6337238;22;20033;-75
2023/08/31 16:06:12;;;;;;;1.45;0.90;;;13.60;71.40;;;;;;6337927;22;20018;-74
2023/08/31 16:08:40;;;;;;;2.33;0.93;;;13.50;71.30;;;;;;6337765;22;19998;-75
2023/08/31 16:11:07;;;;;;;3.75;0.98;;;13.50;71.40;;;;;;6309848;22;20002;-75
2023/08/31 16:13:35;;;;;;;1.25;0.70;;;13.50;71.00;;;;;;6337736;22;20341;-74
2023/08/31 16:16:03;;;;;;;1.38;0.80;;;13.50;71.30;;;;;;6311717;22;20002;-75
2023/08/31 16:18:30;;;;;;;3.80;0.85;;;13.50;71.30;;;;;;6310309;22;20473;-74
2023/08/31 16:21:00;;;;;;;2.05;0.88;;;13.50;70.70;;;;;;6338072;22;19994;-74
2023/08/31 16:23:27;;;;;;;0.77;0.60;;;13.50;71.00;;;;;;6337409;22;20006;-75
2023/08/31 16:25:54;;;;;;;1.38;1.08;;;13.50;71.20;;;;;;6310862;22;20499;-74
2023/08/31 16:28:22;;;;;;;2.55;0.73;;;13.40;70.80;;;;;;6309878;22;20023;-74
2023/08/31 16:30:49;;;;;;;1.92;0.90;;;13.50;71.20;;;;;;6338014;22;19999;-74
2023/08/31 16:33:17;;;;;;;1.35;0.70;;;13.40;70.70;;;;;;6338042;22;20330;-74
2023/08/31 16:35:44;;;;;;;0.73;0.45;;;13.40;71.20;;;;;;6339290;22;20111;-74
2023/08/31 16:38:11;;;;;;;2.10;0.82;;;13.40;70.80;;;;;;6337675;22;20006;-74
2023/08/31 16:40:39;;;;;;;1.98;0.70;;;13.40;70.60;;;;;;6337238;22;20270;-74
2023/08/31 16:43:06;;;;;;;0.90;0.65;;;13.40;69.80;;;;;;6336940;22;19995;-74
2023/08/31 16:45:33;;;;;;;1.02;0.50;;;13.50;69.80;;;;;;6337237;22;20002;-74
2023/08/31 16:48:00;;;;;;;1.58;0.70;;;13.40;69.20;;;;;;6310388;22;20010;-74
2023/08/31 16:50:34;;;;;;;0.93;0.50;;;13.50;69.10;;;;;;6337027;22;20357;-74
2023/08/31 16:53:05;;;;;;;1.38;0.60;;;13.50;69.30;;;;;;6337453;22;20006;-74
2023/08/31 16:55:33;;;;;;;1.15;0.70;;;13.50;68.80;;;;;;6337826;22;20010;-74
2023/08/31 16:58:00;;;;;;;0.45;0.43;;;13.50;68.30;;;;;;6337936;22;20010;-74
2023/08/31 17:00:28;;;;;;;2.05;0.60;;;13.50;68.70;;;;;;6337520;22;20333;-74
2023/08/31 17:02:56;;;;;;;0.57;0.43;;;13.50;68.80;;;;;;6337809;22;20446;-74
2023/08/31 17:05:23;;;;;;;1.25;0.60;;;13.50;68.60;;;;;;6337783;22;20026;-74
2023/08/31 17:07:50;;;;;;;1.08;0.55;;;13.50;68.60;;;;;;6284291;22;20268;-74
2023/08/31 17:10:17;;;;;;;1.17;0.68;;;13.40;68.70;;;;;;6337862;22;20002;-74
2023/08/31 17:12:44;;;;;;;2.00;0.60;;;13.50;68.90;;;;;;6337572;22;20003;-74
2023/08/31 17:15:12;;;;;;;0.65;0.40;;;13.40;68.40;;;;;;6337935;22;20325;-74
2023/08/31 17:17:43;;;;;;;3.58;0.60;;;13.40;68.50;;;;;;6338794;22;20006;-74
2023/08/31 17:20:16;;;;;;;2.05;0.70;;;13.40;68.90;;;;;;6337545;22;20074;-73
2023/08/31 17:22:44;;;;;;;1.25;0.55;;;13.40;68.50;;;;;;6337824;22;20026;-74
2023/08/31 17:25:12;;;;;;;0.88;0.60;;;13.40;69.00;;;;;;6310896;22;20003;-73
2023/08/31 17:27:40;;;;;;;0.57;0.55;;;13.40;68.60;;;;;;6338010;22;20078;-73
2023/08/31 17:30:07;;;;;;;3.80;0.68;;;13.30;69.30;;;;;;6337830;22;20052;-73
2023/08/31 17:32:38;;;;;;;2.03;0.55;;;13.30;68.90;;;;;;6337912;22;20363;-74
2023/08/31 17:35:06;;;;;;;1.25;0.50;;;13.20;69.40;;;;;;6337758;22;19995;-73
2023/08/31 17:37:33;;;;;;;3.08;0.90;;;13.20;69.10;;;;;;6337690;22;20003;-74
2023/08/31 17:40:01;;;;;;;2.22;0.65;;;13.20;69.60;;;;;;6338242;22;20006;-74
2023/08/31 17:42:28;;;;;;;4.47;0.73;;;13.20;70.40;;;;;;6336713;22;20330;-74
2023/08/31 17:44:56;;;;;;;3.10;0.90;;;13.10;70.70;;;;;;6337504;22;20483;-74
2023/08/31 17:47:23;;;;;;;0.68;0.55;;;13.10;71.00;;;;;;6337018;22;20072;-74
2023/08/31 17:49:50;;;;;;;1.60;0.70;;;13.10;71.40;;;;;;6336821;22;19999;-74
2023/08/31 17:52:17;;;;;;;1.25;0.70;;;13.00;71.30;;;;;;6336578;22;20029;-74
2023/08/31 17:54:45;;;;;;;1.55;0.80;;;13.00;71.50;;;;;;6337065;22;20034;-74
2023/08/31 17:57:12;;;;;;;1.52;0.93;;;12.90;72.10;;;;;;6337243;22;20031;-74
2023/08/31 17:59:40;;;;;;;2.53;1.10;;;12.90;71.70;;;;;;6337262;22;20321;-74
